sensor_id;sensor_type;location;lat;lon;timestamp;P1;durP1;ratioP1;P2;durP2;ratioP2
28629;SDS011;15817;42.130;24.762;2022-09-09T00:00:30;10.45;;;5.50;;
28629;SDS011;15817;42.130;24.762;2022-09-09T00:03:23;10.48;;;5.55;;
28629;SDS011;15817;42.130;24.762;2022-09-09T00:06:16;10.60;;;5.40;;
28629;SDS011;15817;42.130;24.762;2022-09-09T00:11:42;9.15;;;5.63;;
28629;SDS011;15817;42.130;24.762;2022-09-09T00:14:15;7.03;;;5.18;;
28629;SDS011;15817;42.130;24.762;2022-09-09T00:16:55;13.55;;;5.45;;
28629;SDS011;15817;42.130;24.762;2022-09-09T00:19:44;12.93;;;5.90;;
28629;SDS011;15817;42.130;24.762;2022-09-09T00:22:18;10.38;;;5.20;;
28629;SDS011;15817;42.130;24.762;2022-09-09T00:24:51;7.50;;;4.43;;
28629;SDS011;15817;42.130;24.762;2022-09-09T00:27:24;8.20;;;4.60;;
28629;SDS011;15817;42.130;24.762;2022-09-09T00:29:54;8.13;;;4.85;;
28629;SDS011;15817;42.130;24.762;2022-09-09T00:32:24;9.10;;;4.57;;
28629;SDS011;15817;42.130;24.762;2022-09-09T00:35:15;12.32;;;4.10;;
28629;SDS011;15817;42.130;24.762;2022-09-09T00:37:52;6.90;;;4.20;;
28629;SDS011;15817;42.130;24.762;2022-09-09T00:40:25;10.77;;;4.40;;
28629;SDS011;15817;42.130;24.762;2022-09-09T00:43:18;6.05;;;4.18;;
28629;SDS011;15817;42.130;24.762;2022-09-09T00:46:00;5.85;;;4.22;;
28629;SDS011;15817;42.130;24.762;2022-09-09T00:51:38;9.48;;;4.50;;
28629;SDS011;15817;42.130;24.762;2022-09-09T01:02:19;9.18;;;5.72;;
28629;SDS011;15817;42.130;24.762;2022-09-09T01:04:54;7.85;;;5.22;;
28629;SDS011;15817;42.130;24.762;2022-09-09T01:07:25;7.70;;;5.57;;
28629;SDS011;15817;42.130;24.762;2022-09-09T01:09:56;13.32;;;6.15;;
28629;SDS011;15817;42.130;24.762;2022-09-09T01:12:34;9.30;;;6.18;;
28629;SDS011;15817;42.130;24.762;2022-09-09T01:17:31;11.43;;;6.38;;
28629;SDS011;15817;42.130;24.762;2022-09-09T01:20:17;12.45;;;6.38;;
28629;SDS011;15817;42.130;24.762;2022-09-09T01:26:08;10.77;;;7.22;;
28629;SDS011;15817;42.130;24.762;2022-09-09T01:28:38;10.80;;;6.55;;
28629;SDS011;15817;42.130;24.762;2022-09-09T01:31:11;11.02;;;7.15;;
28629;SDS011;15817;42.130;24.762;2022-09-09T01:33:45;12.35;;;6.85;;
28629;SDS011;15817;42.130;24.762;2022-09-09T01:36:20;13.95;;;7.45;;
28629;SDS011;15817;42.130;24.762;2022-09-09T01:38:52;11.52;;;6.50;;
28629;SDS011;15817;42.130;24.762;2022-09-09T01:41:19;7.53;;;5.35;;
28629;SDS011;15817;42.130;24.762;2022-09-09T01:43:56;8.88;;;6.05;;
28629;SDS011;15817;42.130;24.762;2022-09-09T01:46:23;7.70;;;5.63;;
28629;SDS011;15817;42.130;24.762;2022-09-09T01:48:50;13.90;;;6.15;;
28629;SDS011;15817;42.130;24.762;2022-09-09T01:51:19;13.63;;;7.40;;
28629;SDS011;15817;42.130;24.762;2022-09-09T01:53:46;11.52;;;7.80;;
28629;SDS011;15817;42.130;24.762;2022-09-09T01:59:07;17.10;;;7.97;;
28629;SDS011;15817;42.130;24.762;2022-09-09T02:09:53;15.55;;;8.23;;
28629;SDS011;15817;42.130;24.762;2022-09-09T02:12:39;15.98;;;7.80;;
28629;SDS011;15817;42.130;24.762;2022-09-09T02:15:12;11.38;;;7.78;;
28629;SDS011;15817;42.130;24.762;2022-09-09T02:17:58;11.90;;;8.55;;
28629;SDS011;15817;42.130;24.762;2022-09-09T02:20:27;13.57;;;8.00;;
28629;SDS011;15817;42.130;24.762;2022-09-09T02:22:58;12.35;;;7.57;;
28629;SDS011;15817;42.130;24.762;2022-09-09T02:25:27;19.55;;;8.02;;
28629;SDS011;15817;42.130;24.762;2022-09-09T02:28:03;12.52;;;8.48;;
28629;SDS011;15817;42.130;24.762;2022-09-09T02:30:32;16.02;;;8.10;;
28629;SDS011;15817;42.130;24.762;2022-09-09T02:33:03;10.95;;;7.53;;
28629;SDS011;15817;42.130;24.762;2022-09-09T02:35:44;14.65;;;7.75;;
28629;SDS011;15817;42.130;24.762;2022-09-09T02:38:12;19.33;;;9.35;;
28629;SDS011;15817;42.130;24.762;2022-09-09T02:40:48;14.98;;;7.75;;
28629;SDS011;15817;42.130;24.762;2022-09-09T02:43:14;21.80;;;9.07;;
28629;SDS011;15817;42.130;24.762;2022-09-09T02:46:06;17.52;;;9.30;;
28629;SDS011;15817;42.130;24.762;2022-09-09T02:48:51;17.20;;;9.10;;
28629;SDS011;15817;42.130;24.762;2022-09-09T02:56:46;16.92;;;8.10;;
28629;SDS011;15817;42.130;24.762;2022-09-09T02:59:18;11.80;;;8.23;;
28629;SDS011;15817;42.130;24.762;2022-09-09T03:01:44;15.65;;;8.35;;
28629;SDS011;15817;42.130;24.762;2022-09-09T03:04:10;21.38;;;8.60;;
28629;SDS011;15817;42.130;24.762;2022-09-09T03:06:37;17.00;;;8.27;;
28629;SDS011;15817;42.130;24.762;2022-09-09T03:09:14;16.40;;;8.52;;
28629;SDS011;15817;42.130;24.762;2022-09-09T03:11:39;16.55;;;8.98;;
28629;SDS011;15817;42.130;24.762;2022-09-09T03:14:06;19.52;;;8.60;;
28629;SDS011;15817;42.130;24.762;2022-09-09T03:16:34;17.15;;;8.15;;
28629;SDS011;15817;42.130;24.762;2022-09-09T03:19:00;17.80;;;9.07;;
28629;SDS011;15817;42.130;24.762;2022-09-09T03:21:27;12.88;;;7.90;;
28629;SDS011;15817;42.130;24.762;2022-09-09T03:23:53;16.20;;;8.15;;
28629;SDS011;15817;42.130;24.762;2022-09-09T03:26:20;13.40;;;8.15;;
28629;SDS011;15817;42.130;24.762;2022-09-09T03:28:46;19.42;;;8.23;;
28629;SDS011;15817;42.130;24.762;2022-09-09T03:31:16;17.17;;;7.78;;
28629;SDS011;15817;42.130;24.762;2022-09-09T03:33:42;18.20;;;7.78;;
28629;SDS011;15817;42.130;24.762;2022-09-09T03:36:11;14.35;;;7.15;;
28629;SDS011;15817;42.130;24.762;2022-09-09T03:38:37;23.75;;;7.97;;
28629;SDS011;15817;42.130;24.762;2022-09-09T03:41:03;22.05;;;7.78;;
28629;SDS011;15817;42.130;24.762;2022-09-09T03:43:32;21.63;;;7.70;;
28629;SDS011;15817;42.130;24.762;2022-09-09T03:45:57;18.83;;;7.47;;
28629;SDS011;15817;42.130;24.762;2022-09-09T03:48:25;21.40;;;7.00;;
28629;SDS011;15817;42.130;24.762;2022-09-09T03:51:09;13.70;;;7.00;;
28629;SDS011;15817;42.130;24.762;2022-09-09T03:53:36;18.92;;;6.70;;
28629;SDS011;15817;42.130;24.762;2022-09-09T03:56:03;10.90;;;7.13;;
28629;SDS011;15817;42.130;24.762;2022-09-09T03:58:35;11.90;;;6.78;;
28629;SDS011;15817;42.130;24.762;2022-09-09T04:03:38;9.80;;;6.90;;
28629;SDS011;15817;42.130;24.762;2022-09-09T04:06:06;15.93;;;7.38;;
28629;SDS011;15817;42.130;24.762;2022-09-09T04:08:34;19.20;;;7.70;;
28629;SDS011;15817;42.130;24.762;2022-09-09T04:11:01;17.50;;;8.18;;
28629;SDS011;15817;42.130;24.762;2022-09-09T04:13:30;18.48;;;7.38;;
28629;SDS011;15817;42.130;24.762;2022-09-09T04:15:58;16.70;;;7.47;;
28629;SDS011;15817;42.130;24.762;2022-09-09T04:18:25;19.38;;;7.97;;
28629;SDS011;15817;42.130;24.762;2022-09-09T04:20:53;13.82;;;7.30;;
28629;SDS011;15817;42.130;24.762;2022-09-09T04:23:24;17.83;;;6.88;;
28629;SDS011;15817;42.130;24.762;2022-09-09T04:25:53;16.08;;;5.93;;
28629;SDS011;15817;42.130;24.762;2022-09-09T04:28:20;10.52;;;6.57;;
28629;SDS011;15817;42.130;24.762;2022-09-09T04:30:49;9.55;;;6.57;;
28629;SDS011;15817;42.130;24.762;2022-09-09T04:33:15;20.30;;;8.27;;
28629;SDS011;15817;42.130;24.762;2022-09-09T04:35:46;11.63;;;7.88;;
28629;SDS011;15817;42.130;24.762;2022-09-09T04:38:17;12.80;;;7.35;;
28629;SDS011;15817;42.130;24.762;2022-09-09T04:40:45;14.18;;;7.20;;
28629;SDS011;15817;42.130;24.762;2022-09-09T04:43:13;17.98;;;6.90;;
28629;SDS011;15817;42.130;24.762;2022-09-09T04:45:43;17.98;;;7.10;;
28629;SDS011;15817;42.130;24.762;2022-09-09T04:48:12;13.10;;;8.10;;
28629;SDS011;15817;42.130;24.762;2022-09-09T04:50:38;21.33;;;8.18;;
28629;SDS011;15817;42.130;24.762;2022-09-09T04:53:04;13.43;;;8.00;;
28629;SDS011;15817;42.130;24.762;2022-09-09T04:55:31;18.73;;;8.38;;
28629;SDS011;15817;42.130;24.762;2022-09-09T04:58:02;15.80;;;8.65;;
28629;SDS011;15817;42.130;24.762;2022-09-09T05:00:32;12.90;;;7.88;;
28629;SDS011;15817;42.130;24.762;2022-09-09T05:03:05;16.33;;;8.75;;
28629;SDS011;15817;42.130;24.762;2022-09-09T05:05:35;12.73;;;7.88;;
28629;SDS011;15817;42.130;24.762;2022-09-09T05:08:03;16.70;;;7.20;;
28629;SDS011;15817;42.130;24.762;2022-09-09T05:10:30;14.13;;;7.63;;
28629;SDS011;15817;42.130;24.762;2022-09-09T05:12:57;12.70;;;7.25;;
28629;SDS011;15817;42.130;24.762;2022-09-09T05:15:25;17.10;;;8.30;;
28629;SDS011;15817;42.130;24.762;2022-09-09T05:17:51;16.85;;;8.25;;
28629;SDS011;15817;42.130;24.762;2022-09-09T05:20:19;26.85;;;8.60;;
28629;SDS011;15817;42.130;24.762;2022-09-09T05:23:19;13.25;;;7.85;;
28629;SDS011;15817;42.130;24.762;2022-09-09T05:25:53;19.42;;;7.30;;
28629;SDS011;15817;42.130;24.762;2022-09-09T05:28:20;16.35;;;6.75;;
28629;SDS011;15817;42.130;24.762;2022-09-09T05:30:46;18.83;;;6.75;;
28629;SDS011;15817;42.130;24.762;2022-09-09T05:33:28;11.75;;;6.30;;
28629;SDS011;15817;42.130;24.762;2022-09-09T05:35:58;19.70;;;7.00;;
28629;SDS011;15817;42.130;24.762;2022-09-09T05:38:28;15.15;;;6.65;;
28629;SDS011;15817;42.130;24.762;2022-09-09T05:40:55;15.38;;;6.47;;
28629;SDS011;15817;42.130;24.762;2022-09-09T05:43:22;12.10;;;6.47;;
28629;SDS011;15817;42.130;24.762;2022-09-09T05:45:58;21.00;;;6.88;;
28629;SDS011;15817;42.130;24.762;2022-09-09T05:48:30;18.33;;;6.95;;
28629;SDS011;15817;42.130;24.762;2022-09-09T05:50:58;13.45;;;6.47;;
28629;SDS011;15817;42.130;24.762;2022-09-09T05:53:25;13.95;;;7.15;;
28629;SDS011;15817;42.130;24.762;2022-09-09T05:55:59;16.30;;;6.22;;
28629;SDS011;15817;42.130;24.762;2022-09-09T05:58:34;9.80;;;5.55;;
28629;SDS011;15817;42.130;24.762;2022-09-09T06:01:10;15.45;;;6.53;;
28629;SDS011;15817;42.130;24.762;2022-09-09T06:03:38;14.02;;;5.93;;
28629;SDS011;15817;42.130;24.762;2022-09-09T06:06:07;9.95;;;5.63;;
28629;SDS011;15817;42.130;24.762;2022-09-09T06:08:43;10.95;;;5.45;;
28629;SDS011;15817;42.130;24.762;2022-09-09T06:11:16;9.15;;;4.85;;
28629;SDS011;15817;42.130;24.762;2022-09-09T06:16:37;12.43;;;4.85;;
28629;SDS011;15817;42.130;24.762;2022-09-09T06:19:10;9.90;;;4.68;;
28629;SDS011;15817;42.130;24.762;2022-09-09T06:21:40;8.05;;;4.50;;
28629;SDS011;15817;42.130;24.762;2022-09-09T06:24:07;9.27;;;4.85;;
28629;SDS011;15817;42.130;24.762;2022-09-09T06:26:35;15.30;;;5.53;;
28629;SDS011;15817;42.130;24.762;2022-09-09T06:29:15;10.35;;;4.80;;
28629;SDS011;15817;42.130;24.762;2022-09-09T06:31:42;10.80;;;5.30;;
28629;SDS011;15817;42.130;24.762;2022-09-09T06:34:22;9.55;;;5.53;;
28629;SDS011;15817;42.130;24.762;2022-09-09T06:36:56;11.65;;;5.65;;
28629;SDS011;15817;42.130;24.762;2022-09-09T06:39:24;7.95;;;5.05;;
28629;SDS011;15817;42.130;24.762;2022-09-09T06:41:51;9.60;;;5.72;;
28629;SDS011;15817;42.130;24.762;2022-09-09T06:44:38;16.42;;;6.53;;
28629;SDS011;15817;42.130;24.762;2022-09-09T06:47:08;13.80;;;5.97;;
28629;SDS011;15817;42.130;24.762;2022-09-09T06:49:35;18.67;;;6.32;;
28629;SDS011;15817;42.130;24.762;2022-09-09T06:52:19;10.45;;;5.10;;
28629;SDS011;15817;42.130;24.762;2022-09-09T06:54:49;13.88;;;5.32;;
28629;SDS011;15817;42.130;24.762;2022-09-09T06:57:16;13.00;;;4.70;;
28629;SDS011;15817;42.130;24.762;2022-09-09T06:59:45;20.83;;;5.85;;
28629;SDS011;15817;42.130;24.762;2022-09-09T07:02:10;7.80;;;4.70;;
28629;SDS011;15817;42.130;24.762;2022-09-09T07:04:36;7.97;;;4.50;;
28629;SDS011;15817;42.130;24.762;2022-09-09T07:07:03;13.80;;;5.28;;
28629;SDS011;15817;42.130;24.762;2022-09-09T07:09:32;9.95;;;6.03;;
28629;SDS011;15817;42.130;24.762;2022-09-09T07:11:58;10.70;;;5.50;;
28629;SDS011;15817;42.130;24.762;2022-09-09T07:14:26;8.98;;;4.68;;
28629;SDS011;15817;42.130;24.762;2022-09-09T07:16:58;31.00;;;6.10;;
28629;SDS011;15817;42.130;24.762;2022-09-09T07:19:29;36.25;;;7.05;;
28629;SDS011;15817;42.130;24.762;2022-09-09T07:21:56;174.93;;;19.10;;
28629;SDS011;15817;42.130;24.762;2022-09-09T07:24:23;58.35;;;8.57;;
28629;SDS011;15817;42.130;24.762;2022-09-09T07:26:49;17.88;;;5.60;;
28629;SDS011;15817;42.130;24.762;2022-09-09T07:29:17;16.45;;;5.43;;
28629;SDS011;15817;42.130;24.762;2022-09-09T07:31:43;12.82;;;5.22;;
28629;SDS011;15817;42.130;24.762;2022-09-09T07:34:13;80.40;;;10.35;;
28629;SDS011;15817;42.130;24.762;2022-09-09T07:36:39;14.85;;;5.50;;
28629;SDS011;15817;42.130;24.762;2022-09-09T07:39:09;10.07;;;4.85;;
28629;SDS011;15817;42.130;24.762;2022-09-09T07:41:43;14.35;;;5.15;;
28629;SDS011;15817;42.130;24.762;2022-09-09T07:44:13;12.10;;;5.10;;
28629;SDS011;15817;42.130;24.762;2022-09-09T07:46:42;13.38;;;4.60;;
28629;SDS011;15817;42.130;24.762;2022-09-09T07:49:13;7.60;;;4.40;;
28629;SDS011;15817;42.130;24.762;2022-09-09T07:51:42;11.88;;;4.97;;
28629;SDS011;15817;42.130;24.762;2022-09-09T07:54:12;12.85;;;5.50;;
28629;SDS011;15817;42.130;24.762;2022-09-09T07:56:43;13.07;;;5.43;;
28629;SDS011;15817;42.130;24.762;2022-09-09T07:59:09;13.25;;;6.35;;
28629;SDS011;15817;42.130;24.762;2022-09-09T08:01:44;18.75;;;6.95;;
28629;SDS011;15817;42.130;24.762;2022-09-09T08:04:15;8.98;;;5.18;;
28629;SDS011;15817;42.130;24.762;2022-09-09T08:06:44;12.07;;;4.38;;
28629;SDS011;15817;42.130;24.762;2022-09-09T08:09:13;10.40;;;4.43;;
28629;SDS011;15817;42.130;24.762;2022-09-09T08:11:41;8.20;;;4.38;;
28629;SDS011;15817;42.130;24.762;2022-09-09T08:14:08;14.77;;;5.05;;
28629;SDS011;15817;42.130;24.762;2022-09-09T08:16:40;10.38;;;4.65;;
28629;SDS011;15817;42.130;24.762;2022-09-09T08:19:10;21.23;;;5.47;;
28629;SDS011;15817;42.130;24.762;2022-09-09T08:21:38;14.90;;;5.50;;
28629;SDS011;15817;42.130;24.762;2022-09-09T08:24:05;8.65;;;4.65;;
28629;SDS011;15817;42.130;24.762;2022-09-09T08:26:36;10.63;;;4.60;;
28629;SDS011;15817;42.130;24.762;2022-09-09T08:29:05;19.17;;;4.63;;
28629;SDS011;15817;42.130;24.762;2022-09-09T08:31:36;14.35;;;4.80;;
28629;SDS011;15817;42.130;24.762;2022-09-09T08:34:07;15.70;;;4.82;;
28629;SDS011;15817;42.130;24.762;2022-09-09T08:36:37;11.35;;;5.00;;
28629;SDS011;15817;42.130;24.762;2022-09-09T08:39:06;31.02;;;4.88;;
28629;SDS011;15817;42.130;24.762;2022-09-09T08:44:38;19.20;;;5.53;;
28629;SDS011;15817;42.130;24.762;2022-09-09T08:50:03;7.30;;;4.22;;
28629;SDS011;15817;42.130;24.762;2022-09-09T08:52:49;10.63;;;4.57;;
28629;SDS011;15817;42.130;24.762;2022-09-09T08:55:49;11.98;;;4.25;;
28629;SDS011;15817;42.130;24.762;2022-09-09T09:12:01;12.90;;;4.25;;
28629;SDS011;15817;42.130;24.762;2022-09-09T09:14:39;12.30;;;4.53;;
28629;SDS011;15817;42.130;24.762;2022-09-09T09:17:12;12.50;;;4.45;;
28629;SDS011;15817;42.130;24.762;2022-09-09T09:19:41;11.35;;;4.10;;
28629;SDS011;15817;42.130;24.762;2022-09-09T09:22:28;10.82;;;4.80;;
28629;SDS011;15817;42.130;24.762;2022-09-09T09:25:10;7.85;;;4.43;;
28629;SDS011;15817;42.130;24.762;2022-09-09T09:30:38;6.43;;;4.18;;
28629;SDS011;15817;42.130;24.762;2022-09-09T09:33:14;9.20;;;4.63;;
28629;SDS011;15817;42.130;24.762;2022-09-09T09:35:46;9.27;;;4.70;;
28629;SDS011;15817;42.130;24.762;2022-09-09T09:38:19;9.38;;;4.53;;
28629;SDS011;15817;42.130;24.762;2022-09-09T09:40:55;5.93;;;4.50;;
28629;SDS011;15817;42.130;24.762;2022-09-09T09:43:33;10.10;;;4.70;;
28629;SDS011;15817;42.130;24.762;2022-09-09T09:46:05;19.75;;;4.90;;
28629;SDS011;15817;42.130;24.762;2022-09-09T09:48:55;9.40;;;4.28;;
28629;SDS011;15817;42.130;24.762;2022-09-09T09:51:27;10.13;;;4.50;;
28629;SDS011;15817;42.130;24.762;2022-09-09T09:54:03;9.18;;;4.80;;
28629;SDS011;15817;42.130;24.762;2022-09-09T09:56:36;19.08;;;5.40;;
28629;SDS011;15817;42.130;24.762;2022-09-09T10:01:53;6.28;;;5.03;;
28629;SDS011;15817;42.130;24.762;2022-09-09T10:04:22;7.68;;;5.13;;
28629;SDS011;15817;42.130;24.762;2022-09-09T10:06:52;6.45;;;4.88;;
28629;SDS011;15817;42.130;24.762;2022-09-09T10:09:22;8.75;;;4.90;;
28629;SDS011;15817;42.130;24.762;2022-09-09T10:14:39;11.63;;;5.18;;
28629;SDS011;15817;42.130;24.762;2022-09-09T10:22:52;11.63;;;5.18;;
28629;SDS011;15817;42.130;24.762;2022-09-09T10:28:33;9.68;;;5.15;;
28629;SDS011;15817;42.130;24.762;2022-09-09T10:31:31;5.90;;;4.85;;
28629;SDS011;15817;42.130;24.762;2022-09-09T10:34:38;6.22;;;4.68;;
28629;SDS011;15817;42.130;24.762;2022-09-09T10:40:33;6.63;;;4.53;;
28629;SDS011;15817;42.130;24.762;2022-09-09T10:43:23;12.63;;;4.63;;
28629;SDS011;15817;42.130;24.762;2022-09-09T10:56:31;7.88;;;4.18;;
28629;SDS011;15817;42.130;24.762;2022-09-09T10:59:13;9.27;;;4.50;;
28629;SDS011;15817;42.130;24.762;2022-09-09T11:01:43;11.32;;;5.10;;
28629;SDS011;15817;42.130;24.762;2022-09-09T11:04:22;8.75;;;4.30;;
28629;SDS011;15817;42.130;24.762;2022-09-09T11:06:52;5.15;;;4.32;;
28629;SDS011;15817;42.130;24.762;2022-09-09T11:09:28;7.78;;;4.28;;
28629;SDS011;15817;42.130;24.762;2022-09-09T11:12:01;9.32;;;4.53;;
28629;SDS011;15817;42.130;24.762;2022-09-09T11:20:45;7.65;;;4.60;;
28629;SDS011;15817;42.130;24.762;2022-09-09T11:23:38;6.82;;;4.15;;
28629;SDS011;15817;42.130;24.762;2022-09-09T11:26:41;7.97;;;4.10;;
28629;SDS011;15817;42.130;24.762;2022-09-09T11:32:27;5.53;;;3.97;;
28629;SDS011;15817;42.130;24.762;2022-09-09T11:38:21;4.88;;;4.07;;
28629;SDS011;15817;42.130;24.762;2022-09-09T11:41:03;4.70;;;3.75;;
28629;SDS011;15817;42.130;24.762;2022-09-09T11:46:13;5.78;;;3.80;;
28629;SDS011;15817;42.130;24.762;2022-09-09T11:48:58;7.55;;;3.80;;
28629;SDS011;15817;42.130;24.762;2022-09-09T11:51:26;6.88;;;3.50;;
28629;SDS011;15817;42.130;24.762;2022-09-09T11:53:57;7.15;;;3.67;;
28629;SDS011;15817;42.130;24.762;2022-09-09T11:56:30;5.22;;;3.60;;
28629;SDS011;15817;42.130;24.762;2022-09-09T12:01:28;5.90;;;3.80;;
28629;SDS011;15817;42.130;24.762;2022-09-09T12:04:10;7.93;;;3.75;;
28629;SDS011;15817;42.130;24.762;2022-09-09T12:09:48;10.32;;;3.78;;
28629;SDS011;15817;42.130;24.762;2022-09-09T12:17:28;6.10;;;3.90;;
28629;SDS011;15817;42.130;24.762;2022-09-09T12:26:05;7.35;;;3.65;;
28629;SDS011;15817;42.130;24.762;2022-09-09T12:34:15;8.32;;;4.20;;
28629;SDS011;15817;42.130;24.762;2022-09-09T12:36:48;6.90;;;4.18;;
28629;SDS011;15817;42.130;24.762;2022-09-09T12:39:32;9.82;;;4.15;;
28629;SDS011;15817;42.130;24.762;2022-09-09T12:42:01;4.63;;;4.00;;
28629;SDS011;15817;42.130;24.762;2022-09-09T12:44:29;5.95;;;3.70;;
28629;SDS011;15817;42.130;24.762;2022-09-09T12:46:56;8.07;;;4.32;;
28629;SDS011;15817;42.130;24.762;2022-09-09T12:52:03;18.95;;;4.15;;
28629;SDS011;15817;42.130;24.762;2022-09-09T12:54:35;5.53;;;3.63;;
28629;SDS011;15817;42.130;24.762;2022-09-09T12:57:11;9.52;;;4.07;;
28629;SDS011;15817;42.130;24.762;2022-09-09T12:59:41;8.30;;;4.22;;
28629;SDS011;15817;42.130;24.762;2022-09-09T13:02:22;9.82;;;4.32;;
28629;SDS011;15817;42.130;24.762;2022-09-09T13:04:50;8.02;;;5.28;;
28629;SDS011;15817;42.130;24.762;2022-09-09T13:07:19;8.65;;;4.28;;
28629;SDS011;15817;42.130;24.762;2022-09-09T13:09:49;5.05;;;3.50;;
28629;SDS011;15817;42.130;24.762;2022-09-09T13:12:25;6.82;;;4.22;;
28629;SDS011;15817;42.130;24.762;2022-09-09T13:15:03;9.85;;;4.18;;
28629;SDS011;15817;42.130;24.762;2022-09-09T13:17:42;10.23;;;4.47;;
28629;SDS011;15817;42.130;24.762;2022-09-09T13:20:16;7.85;;;4.35;;
28629;SDS011;15817;42.130;24.762;2022-09-09T13:22:46;6.38;;;5.13;;
28629;SDS011;15817;42.130;24.762;2022-09-09T13:25:22;8.65;;;4.32;;
28629;SDS011;15817;42.130;24.762;2022-09-09T13:30:31;5.60;;;3.78;;
28629;SDS011;15817;42.130;24.762;2022-09-09T13:33:05;7.97;;;4.15;;
28629;SDS011;15817;42.130;24.762;2022-09-09T13:35:49;8.50;;;4.30;;
28629;SDS011;15817;42.130;24.762;2022-09-09T13:38:19;11.70;;;4.63;;
28629;SDS011;15817;42.130;24.762;2022-09-09T13:43:37;11.30;;;4.18;;
28629;SDS011;15817;42.130;24.762;2022-09-09T13:46:28;19.33;;;4.53;;
28629;SDS011;15817;42.130;24.762;2022-09-09T13:49:02;8.80;;;4.53;;
28629;SDS011;15817;42.130;24.762;2022-09-09T13:51:46;7.55;;;4.28;;
28629;SDS011;15817;42.130;24.762;2022-09-09T13:54:16;8.75;;;4.80;;
28629;SDS011;15817;42.130;24.762;2022-09-09T13:56:57;12.45;;;5.18;;
28629;SDS011;15817;42.130;24.762;2022-09-09T13:59:46;6.95;;;4.57;;
28629;SDS011;15817;42.130;24.762;2022-09-09T14:02:20;21.65;;;5.30;;
28629;SDS011;15817;42.130;24.762;2022-09-09T14:04:54;15.93;;;5.88;;
28629;SDS011;15817;42.130;24.762;2022-09-09T14:07:34;14.10;;;5.63;;
28629;SDS011;15817;42.130;24.762;2022-09-09T14:10:05;9.90;;;4.85;;
28629;SDS011;15817;42.130;24.762;2022-09-09T14:12:31;10.07;;;5.35;;
28629;SDS011;15817;42.130;24.762;2022-09-09T14:14:57;21.88;;;6.82;;
28629;SDS011;15817;42.130;24.762;2022-09-09T14:17:25;17.55;;;5.32;;
28629;SDS011;15817;42.130;24.762;2022-09-09T14:19:54;19.33;;;4.97;;
28629;SDS011;15817;42.130;24.762;2022-09-09T14:22:21;11.35;;;5.28;;
28629;SDS011;15817;42.130;24.762;2022-09-09T14:24:48;8.45;;;4.72;;
28629;SDS011;15817;42.130;24.762;2022-09-09T14:27:14;21.10;;;6.45;;
28629;SDS011;15817;42.130;24.762;2022-09-09T14:29:41;10.90;;;5.53;;
28629;SDS011;15817;42.130;24.762;2022-09-09T14:32:11;13.65;;;5.75;;
28629;SDS011;15817;42.130;24.762;2022-09-09T14:34:37;15.55;;;5.75;;
28629;SDS011;15817;42.130;24.762;2022-09-09T14:37:03;19.42;;;6.13;;
28629;SDS011;15817;42.130;24.762;2022-09-09T14:39:32;15.27;;;5.57;;
28629;SDS011;15817;42.130;24.762;2022-09-09T14:42:01;11.95;;;5.55;;
28629;SDS011;15817;42.130;24.762;2022-09-09T14:44:36;14.73;;;5.95;;
28629;SDS011;15817;42.130;24.762;2022-09-09T14:47:06;23.42;;;6.22;;
28629;SDS011;15817;42.130;24.762;2022-09-09T14:49:35;18.40;;;5.38;;
28629;SDS011;15817;42.130;24.762;2022-09-09T14:52:05;15.77;;;5.75;;
28629;SDS011;15817;42.130;24.762;2022-09-09T14:54:31;14.70;;;5.68;;
28629;SDS011;15817;42.130;24.762;2022-09-09T14:56:58;11.27;;;5.13;;
28629;SDS011;15817;42.130;24.762;2022-09-09T14:59:24;10.27;;;5.75;;
28629;SDS011;15817;42.130;24.762;2022-09-09T15:01:52;13.73;;;4.55;;
28629;SDS011;15817;42.130;24.762;2022-09-09T15:04:18;8.73;;;5.28;;
28629;SDS011;15817;42.130;24.762;2022-09-09T15:06:44;14.85;;;5.53;;
28629;SDS011;15817;42.130;24.762;2022-09-09T15:09:15;15.70;;;5.93;;
28629;SDS011;15817;42.130;24.762;2022-09-09T15:11:41;19.25;;;5.53;;
28629;SDS011;15817;42.130;24.762;2022-09-09T15:14:08;19.27;;;5.90;;
28629;SDS011;15817;42.130;24.762;2022-09-09T15:16:35;12.80;;;5.88;;
28629;SDS011;15817;42.130;24.762;2022-09-09T15:19:02;16.50;;;6.00;;
28629;SDS011;15817;42.130;24.762;2022-09-09T15:21:32;11.73;;;5.75;;
28629;SDS011;15817;42.130;24.762;2022-09-09T15:24:02;16.08;;;6.00;;
28629;SDS011;15817;42.130;24.762;2022-09-09T15:26:32;14.52;;;6.07;;
28629;SDS011;15817;42.130;24.762;2022-09-09T15:29:00;13.15;;;6.00;;
28629;SDS011;15817;42.130;24.762;2022-09-09T15:31:33;17.67;;;6.22;;
28629;SDS011;15817;42.130;24.762;2022-09-09T15:34:03;11.60;;;6.10;;
28629;SDS011;15817;42.130;24.762;2022-09-09T15:36:37;16.10;;;5.85;;
28629;SDS011;15817;42.130;24.762;2022-09-09T15:39:17;15.60;;;5.68;;
28629;SDS011;15817;42.130;24.762;2022-09-09T15:41:44;12.05;;;5.90;;
28629;SDS011;15817;42.130;24.762;2022-09-09T15:44:16;18.20;;;5.90;;
28629;SDS011;15817;42.130;24.762;2022-09-09T15:46:45;9.82;;;5.95;;
28629;SDS011;15817;42.130;24.762;2022-09-09T15:52:52;11.43;;;5.55;;
28629;SDS011;15817;42.130;24.762;2022-09-09T15:55:19;10.93;;;6.03;;
28629;SDS011;15817;42.130;24.762;2022-09-09T15:57:57;23.05;;;6.03;;
28629;SDS011;15817;42.130;24.762;2022-09-09T16:00:23;14.40;;;5.95;;
28629;SDS011;15817;42.130;24.762;2022-09-09T16:02:52;15.35;;;5.63;;
28629;SDS011;15817;42.130;24.762;2022-09-09T16:05:21;13.07;;;4.45;;
28629;SDS011;15817;42.130;24.762;2022-09-09T16:07:47;12.27;;;5.00;;
28629;SDS011;15817;42.130;24.762;2022-09-09T16:10:13;11.68;;;4.30;;
28629;SDS011;15817;42.130;24.762;2022-09-09T16:12:39;12.70;;;4.75;;
28629;SDS011;15817;42.130;24.762;2022-09-09T16:15:05;12.18;;;4.57;;
28629;SDS011;15817;42.130;24.762;2022-09-09T16:17:32;6.75;;;4.82;;
28629;SDS011;15817;42.130;24.762;2022-09-09T16:20:03;8.23;;;4.68;;
28629;SDS011;15817;42.130;24.762;2022-09-09T16:22:31;6.38;;;4.28;;
28629;SDS011;15817;42.130;24.762;2022-09-09T16:25:00;12.80;;;5.10;;
28629;SDS011;15817;42.130;24.762;2022-09-09T16:27:26;15.60;;;6.10;;
28629;SDS011;15817;42.130;24.762;2022-09-09T16:29:52;10.00;;;4.63;;
28629;SDS011;15817;42.130;24.762;2022-09-09T16:32:18;8.68;;;5.38;;
28629;SDS011;15817;42.130;24.762;2022-09-09T16:34:47;13.05;;;5.15;;
28629;SDS011;15817;42.130;24.762;2022-09-09T16:37:13;13.25;;;4.43;;
28629;SDS011;15817;42.130;24.762;2022-09-09T16:39:39;13.05;;;4.88;;
28629;SDS011;15817;42.130;24.762;2022-09-09T16:42:05;14.98;;;4.47;;
28629;SDS011;15817;42.130;24.762;2022-09-09T16:44:31;13.38;;;4.82;;
28629;SDS011;15817;42.130;24.762;2022-09-09T16:46:56;13.57;;;5.50;;
28629;SDS011;15817;42.130;24.762;2022-09-09T16:49:22;19.02;;;4.93;;
28629;SDS011;15817;42.130;24.762;2022-09-09T16:51:49;17.13;;;4.60;;
28629;SDS011;15817;42.130;24.762;2022-09-09T16:54:18;12.80;;;5.35;;
28629;SDS011;15817;42.130;24.762;2022-09-09T16:56:46;13.30;;;5.05;;
28629;SDS011;15817;42.130;24.762;2022-09-09T16:59:21;11.45;;;5.18;;
28629;SDS011;15817;42.130;24.762;2022-09-09T17:01:51;20.00;;;5.10;;
28629;SDS011;15817;42.130;24.762;2022-09-09T17:04:21;21.23;;;6.00;;
28629;SDS011;15817;42.130;24.762;2022-09-09T17:06:50;15.15;;;5.55;;
28629;SDS011;15817;42.130;24.762;2022-09-09T17:09:18;18.75;;;6.20;;
28629;SDS011;15817;42.130;24.762;2022-09-09T17:11:45;20.80;;;6.30;;
28629;SDS011;15817;42.130;24.762;2022-09-09T17:14:13;11.98;;;5.75;;